createdAt,value
2022-07-26T00:00:14.261Z,97.68
2022-07-26T00:01:11.108Z,98.95
2022-07-26T00:02:07.993Z,98.43
2022-07-26T00:03:04.806Z,97.89
2022-07-26T00:04:02.284Z,98.10
2022-07-26T00:04:58.973Z,99.78
2022-07-26T00:05:55.844Z,99.51
2022-07-26T00:06:52.635Z,98.01
2022-07-26T00:07:49.389Z,98.21
2022-07-26T00:08:47.087Z,98.03
2022-07-26T00:09:48.064Z,100.00
2022-07-26T00:10:49.590Z,100.00
2022-07-26T00:11:46.557Z,100.00
2022-07-26T00:12:43.288Z,100.00
2022-07-26T00:13:40.332Z,100.00
2022-07-26T00:14:37.219Z,100.00
2022-07-26T00:15:34.033Z,100.00
2022-07-26T00:16:30.867Z,100.00
2022-07-26T00:17:27.646Z,100.00
2022-07-26T00:18:25.144Z,100.00
2022-07-26T00:19:22.018Z,99.85
2022-07-26T00:20:18.758Z,99.50
2022-07-26T00:21:15.690Z,100.00
2022-07-26T00:22:31.051Z,99.87
2022-07-26T00:23:29.397Z,100.00
2022-07-26T00:24:26.145Z,100.00
2022-07-26T00:25:23.571Z,100.00
2022-07-26T00:26:20.352Z,100.00
2022-07-26T00:27:17.100Z,100.00
2022-07-26T00:28:14.168Z,100.00
2022-07-26T00:29:11.915Z,100.00
2022-07-26T00:30:10.540Z,100.00
2022-07-26T00:31:08.930Z,100.00
2022-07-26T00:32:06.196Z,100.00
2022-07-26T00:33:02.936Z,100.00
2022-07-26T00:33:59.708Z,100.00
2022-07-26T00:34:56.434Z,100.00
2022-07-26T00:35:53.195Z,100.00
2022-07-26T00:36:49.942Z,100.00
2022-07-26T00:37:47.047Z,100.00
2022-07-26T00:38:43.812Z,100.00
2022-07-26T00:39:40.588Z,100.00
2022-07-26T00:40:37.452Z,100.00
2022-07-26T00:41:34.263Z,100.00
2022-07-26T00:42:31.234Z,100.00
2022-07-26T00:43:28.010Z,100.00
2022-07-26T00:44:24.818Z,100.00
2022-07-26T00:45:21.877Z,100.00
2022-07-26T00:46:18.614Z,100.00
2022-07-26T00:47:16.230Z,100.00
2022-07-26T00:48:12.941Z,100.00
2022-07-26T00:49:11.873Z,100.00
2022-07-26T00:50:12.825Z,100.00
2022-07-26T00:51:09.585Z,100.00
2022-07-26T00:52:06.841Z,100.00
2022-07-26T00:53:03.892Z,100.00
2022-07-26T00:54:00.767Z,100.00
2022-07-26T00:54:58.213Z,100.00
2022-07-26T00:55:54.967Z,100.00
2022-07-26T00:56:55.215Z,100.00
2022-07-26T00:57:52.206Z,100.00
2022-07-26T00:58:49.048Z,100.00
2022-07-26T00:59:45.746Z,100.00
2022-07-26T01:00:42.718Z,100.00
2022-07-26T01:01:39.591Z,100.00
2022-07-26T01:02:36.644Z,100.00
2022-07-26T01:03:39.544Z,100.00
2022-07-26T01:04:37.162Z,100.00
2022-07-26T01:05:35.442Z,100.00
2022-07-26T01:06:32.509Z,100.00
2022-07-26T01:07:29.893Z,100.00
2022-07-26T01:08:26.917Z,100.00
2022-07-26T01:09:23.767Z,100.00
2022-07-26T01:10:20.631Z,100.00
2022-07-26T01:11:17.394Z,100.00
2022-07-26T01:12:14.147Z,100.00
2022-07-26T01:13:10.888Z,100.00
2022-07-26T01:14:07.969Z,100.00
2022-07-26T01:15:06.032Z,100.00
2022-07-26T01:16:03.638Z,100.00
2022-07-26T01:17:00.394Z,100.00
2022-07-26T01:17:57.178Z,100.00
2022-07-26T01:18:53.908Z,100.00
2022-07-26T01:19:50.710Z,100.00
2022-07-26T01:20:50.313Z,100.00
2022-07-26T01:21:47.156Z,100.00
2022-07-26T01:22:44.012Z,100.00
2022-07-26T01:23:41.218Z,100.00
2022-07-26T01:24:38.129Z,100.00
2022-07-26T01:25:43.415Z,100.00
2022-07-26T01:26:40.568Z,100.00
2022-07-26T01:27:39.674Z,100.00
2022-07-26T01:28:38.372Z,100.00
2022-07-26T01:29:36.178Z,100.00
2022-07-26T01:30:33.280Z,100.00
2022-07-26T01:31:30.215Z,100.00
2022-07-26T01:32:27.052Z,100.00
2022-07-26T01:33:28.023Z,100.00
2022-07-26T01:34:24.745Z,100.00
2022-07-26T01:35:21.538Z,100.00
2022-07-26T01:36:19.370Z,100.00
2022-07-26T01:37:16.089Z,100.00
2022-07-26T01:38:14.411Z,100.00
2022-07-26T01:39:11.462Z,100.00
2022-07-26T01:40:09.154Z,100.00
2022-07-26T01:41:06.468Z,100.00
2022-07-26T01:42:03.473Z,100.00
2022-07-26T01:43:00.234Z,100.00
2022-07-26T01:43:57.029Z,100.00
2022-07-26T01:44:53.849Z,100.00
2022-07-26T01:45:51.082Z,100.00
2022-07-26T01:46:47.828Z,100.00
2022-07-26T01:47:49.967Z,100.00
2022-07-26T01:48:46.775Z,100.00
2022-07-26T01:49:43.552Z,100.00
2022-07-26T01:50:40.438Z,100.00
2022-07-26T01:51:37.200Z,100.00
2022-07-26T01:52:35.586Z,100.00
2022-07-26T01:53:32.466Z,100.00
2022-07-26T01:54:29.533Z,100.00
2022-07-26T01:55:26.377Z,100.00
2022-07-26T01:56:23.167Z,100.00
2022-07-26T01:57:19.933Z,100.00
2022-07-26T01:58:16.807Z,100.00
2022-07-26T01:59:13.616Z,100.00
2022-07-26T02:00:10.895Z,100.00
2022-07-26T02:01:08.646Z,100.00
2022-07-26T02:02:05.552Z,100.00
2022-07-26T02:03:02.628Z,100.00
2022-07-26T02:03:59.429Z,100.00
2022-07-26T02:04:58.891Z,100.00
2022-07-26T02:05:55.659Z,100.00
2022-07-26T02:06:52.369Z,100.00
2022-07-26T02:07:50.826Z,100.00
2022-07-26T02:08:47.721Z,100.00
2022-07-26T02:09:44.589Z,100.00
2022-07-26T02:10:59.554Z,100.00
2022-07-26T02:11:56.506Z,100.00
2022-07-26T02:12:53.240Z,100.00
2022-07-26T02:13:53.047Z,100.00
2022-07-26T02:14:51.291Z,100.00
2022-07-26T02:15:48.799Z,100.00
2022-07-26T02:16:45.573Z,100.00
2022-07-26T02:17:43.359Z,100.00
2022-07-26T02:18:43.062Z,100.00
2022-07-26T02:19:40.783Z,100.00
2022-07-26T02:20:37.919Z,100.00
2022-07-26T02:21:34.730Z,100.00
2022-07-26T02:22:31.478Z,100.00
2022-07-26T02:23:28.913Z,100.00
2022-07-26T02:24:29.037Z,100.00
2022-07-26T02:25:25.927Z,100.00
2022-07-26T02:26:22.668Z,100.00
2022-07-26T02:27:19.422Z,100.00
2022-07-26T02:28:17.134Z,100.00
2022-07-26T02:29:13.876Z,100.00
2022-07-26T02:30:11.386Z,100.00
2022-07-26T02:31:08.240Z,100.00
2022-07-26T02:32:05.643Z,100.00
2022-07-26T02:33:02.422Z,100.00
2022-07-26T02:33:59.195Z,100.00
2022-07-26T02:34:55.973Z,100.00
2022-07-26T02:35:52.752Z,100.00
2022-07-26T02:36:50.026Z,100.00
2022-07-26T02:37:46.934Z,100.00
2022-07-26T02:38:43.660Z,100.00
2022-07-26T02:39:40.397Z,100.00
2022-07-26T02:40:39.054Z,100.00
2022-07-26T02:41:35.811Z,100.00
2022-07-26T02:42:32.877Z,100.00
2022-07-26T02:43:31.671Z,100.00
2022-07-26T02:44:29.427Z,100.00
2022-07-26T02:45:26.349Z,100.00
2022-07-26T02:46:23.101Z,100.00
2022-07-26T02:47:20.604Z,100.00
2022-07-26T02:48:17.314Z,100.00
2022-07-26T02:49:14.207Z,100.00
2022-07-26T02:50:11.034Z,100.00
2022-07-26T02:51:08.250Z,100.00
2022-07-26T02:52:05.400Z,100.00
2022-07-26T02:53:02.453Z,100.00
2022-07-26T02:53:59.219Z,100.00
2022-07-26T02:54:55.997Z,100.00
2022-07-26T02:55:52.750Z,100.00
2022-07-26T02:56:49.453Z,100.00
2022-07-26T02:57:47.066Z,100.00
2022-07-26T02:58:43.843Z,100.00
2022-07-26T02:59:40.650Z,100.00
2022-07-26T03:00:37.393Z,100.00
2022-07-26T03:01:39.680Z,100.00
2022-07-26T03:02:36.992Z,100.00
2022-07-26T03:03:33.789Z,100.00
2022-07-26T03:04:33.424Z,100.00
2022-07-26T03:05:30.170Z,100.00
2022-07-26T03:06:27.398Z,100.00
2022-07-26T03:07:24.144Z,100.00
2022-07-26T03:08:20.952Z,100.00
2022-07-26T03:09:17.708Z,100.00
2022-07-26T03:10:14.771Z,100.00
2022-07-26T03:11:12.239Z,100.00
2022-07-26T03:12:09.214Z,100.00
2022-07-26T03:13:05.953Z,100.00
2022-07-26T03:14:02.855Z,100.00
2022-07-26T03:15:00.788Z,100.00
2022-07-26T03:15:57.547Z,100.00
2022-07-26T03:16:54.319Z,100.00
2022-07-26T03:17:51.264Z,100.00
2022-07-26T03:18:48.042Z,100.00
2022-07-26T03:19:45.166Z,100.00
2022-07-26T03:20:42.087Z,100.00
2022-07-26T03:21:38.926Z,100.00
2022-07-26T03:22:35.659Z,100.00
2022-07-26T03:23:33.579Z,100.00
2022-07-26T03:24:30.551Z,100.00
2022-07-26T03:25:27.305Z,100.00
2022-07-26T03:26:24.029Z,100.00
2022-07-26T03:27:20.752Z,100.00
2022-07-26T03:28:19.704Z,100.00
2022-07-26T03:29:16.582Z,100.00
2022-07-26T03:30:13.987Z,100.00
2022-07-26T03:31:14.092Z,100.00
2022-07-26T03:32:10.963Z,100.00
2022-07-26T03:33:07.726Z,100.00
2022-07-26T03:34:04.523Z,100.00
2022-07-26T03:35:01.498Z,100.00
2022-07-26T03:35:58.261Z,100.00
2022-07-26T03:36:54.963Z,100.00
2022-07-26T03:37:52.609Z,100.00
2022-07-26T03:38:49.335Z,100.00
2022-07-26T03:39:46.127Z,100.00
2022-07-26T03:40:42.929Z,100.00
2022-07-26T03:41:39.685Z,100.00
2022-07-26T03:42:36.482Z,100.00
2022-07-26T03:43:36.440Z,100.00
2022-07-26T03:44:33.397Z,100.00
2022-07-26T03:45:30.100Z,100.00
2022-07-26T03:46:26.993Z,100.00
2022-07-26T03:47:23.718Z,100.00
2022-07-26T03:48:20.563Z,100.00
2022-07-26T03:49:17.553Z,100.00
2022-07-26T03:50:14.434Z,100.00
2022-07-26T03:51:11.183Z,100.00
2022-07-26T03:52:07.947Z,100.00
2022-07-26T03:53:05.550Z,100.00
2022-07-26T03:54:02.305Z,100.00
2022-07-26T03:54:59.105Z,100.00
2022-07-26T03:56:14.899Z,100.00
2022-07-26T03:57:11.945Z,100.00
2022-07-26T03:58:09.004Z,100.00
2022-07-26T03:59:08.642Z,100.00
2022-07-26T04:00:06.135Z,100.00
2022-07-26T04:01:02.896Z,100.00
2022-07-26T04:01:59.834Z,100.00
2022-07-26T04:02:56.728Z,100.00
2022-07-26T04:03:54.047Z,100.00
2022-07-26T04:04:50.872Z,100.00
2022-07-26T04:05:49.024Z,100.00
2022-07-26T04:06:47.815Z,100.00
2022-07-26T04:07:47.096Z,100.00
2022-07-26T04:08:50.395Z,100.00
2022-07-26T04:09:47.125Z,100.00
2022-07-26T04:10:51.153Z,100.00
2022-07-26T04:11:48.682Z,100.00
2022-07-26T04:12:45.408Z,100.00
2022-07-26T04:13:42.272Z,100.00
2022-07-26T04:14:42.515Z,100.00
2022-07-26T04:15:39.496Z,100.00
2022-07-26T04:16:41.439Z,100.00
2022-07-26T04:17:41.063Z,100.00
2022-07-26T04:18:38.307Z,100.00
2022-07-26T04:19:37.566Z,100.00
2022-07-26T04:20:36.715Z,100.00
2022-07-26T04:21:34.231Z,100.00
2022-07-26T04:22:31.790Z,100.00
2022-07-26T04:23:28.639Z,100.00
2022-07-26T04:24:25.791Z,100.00
2022-07-26T04:25:22.722Z,100.00
2022-07-26T04:26:22.971Z,100.00
2022-07-26T04:27:19.710Z,100.00
2022-07-26T04:28:16.466Z,100.00
2022-07-26T04:29:15.129Z,100.00
2022-07-26T04:30:15.177Z,100.00
2022-07-26T04:31:13.018Z,100.00
2022-07-26T04:32:09.804Z,100.00
2022-07-26T04:33:07.242Z,100.00
2022-07-26T04:34:04.183Z,100.00
2022-07-26T04:35:01.097Z,100.00
2022-07-26T04:35:57.838Z,100.00
2022-07-26T04:36:54.589Z,100.00
2022-07-26T04:37:51.354Z,100.00
2022-07-26T04:38:48.097Z,100.00
2022-07-26T04:39:45.035Z,100.00
2022-07-26T04:40:41.875Z,97.37
2022-07-26T04:41:38.851Z,98.57
2022-07-26T04:42:36.123Z,99.43
2022-07-26T04:43:33.052Z,98.69
2022-07-26T04:44:29.831Z,99.70
2022-07-26T04:45:26.746Z,98.03
2022-07-26T04:46:25.185Z,95.86
2022-07-26T04:47:22.013Z,97.48
2022-07-26T04:48:19.210Z,97.19
2022-07-26T04:49:16.226Z,97.51
2022-07-26T04:50:13.357Z,98.12
2022-07-26T04:51:12.147Z,99.26
2022-07-26T04:52:08.887Z,100.00
2022-07-26T04:53:05.662Z,99.62
2022-07-26T04:54:02.383Z,100.00
2022-07-26T04:54:59.142Z,99.82
2022-07-26T04:55:55.878Z,99.26
2022-07-26T04:56:52.724Z,100.00
2022-07-26T04:57:50.178Z,98.73
2022-07-26T04:58:46.918Z,100.00
2022-07-26T04:59:50.412Z,100.00
2022-07-26T05:01:11.138Z,98.95
2022-07-26T05:02:08.288Z,99.31
2022-07-26T05:03:05.403Z,99.47
2022-07-26T05:04:02.210Z,98.67
2022-07-26T05:04:59.006Z,98.86
2022-07-26T05:05:55.883Z,99.38
2022-07-26T05:06:52.613Z,98.62
2022-07-26T05:07:53.819Z,97.28
2022-07-26T05:08:50.657Z,96.44
2022-07-26T05:09:47.535Z,95.73
2022-07-26T05:10:45.226Z,96.28
2022-07-26T05:11:41.975Z,96.42
2022-07-26T05:12:38.691Z,97.05
2022-07-26T05:13:35.461Z,96.28
2022-07-26T05:14:32.271Z,97.11
2022-07-26T05:15:35.495Z,98.76
2022-07-26T05:16:32.673Z,98.29
2022-07-26T05:17:29.434Z,97.56
2022-07-26T05:18:27.509Z,97.31
2022-07-26T05:19:26.134Z,97.24
2022-07-26T05:20:24.291Z,96.52
2022-07-26T05:21:21.052Z,96.37
2022-07-26T05:22:17.792Z,96.84
2022-07-26T05:23:16.746Z,95.34
2022-07-26T05:24:13.543Z,93.95
2022-07-26T05:25:10.825Z,95.28
2022-07-26T05:26:07.572Z,95.80
2022-07-26T05:27:04.445Z,95.05
2022-07-26T05:28:01.276Z,96.13
2022-07-26T05:28:59.147Z,94.04
2022-07-26T05:29:56.129Z,96.25
2022-07-26T05:30:52.906Z,96.63
2022-07-26T05:31:50.249Z,97.54
2022-07-26T05:32:47.539Z,98.77
2022-07-26T05:33:44.286Z,100.00
2022-07-26T05:34:41.024Z,98.57
2022-07-26T05:35:37.754Z,98.35
2022-07-26T05:36:35.192Z,97.84
2022-07-26T05:37:31.967Z,96.45
2022-07-26T05:38:28.704Z,97.14
2022-07-26T05:39:25.506Z,99.00
2022-07-26T05:40:22.557Z,97.68
2022-07-26T05:41:19.319Z,96.01
2022-07-26T05:42:16.083Z,95.38
2022-07-26T05:43:12.856Z,94.80
2022-07-26T05:44:27.942Z,93.49
2022-07-26T05:45:27.258Z,93.93
2022-07-26T05:46:24.157Z,93.20
2022-07-26T05:47:21.190Z,93.47
2022-07-26T05:48:18.055Z,95.30
2022-07-26T05:49:16.795Z,94.47
2022-07-26T05:50:13.566Z,93.08
2022-07-26T05:51:11.471Z,93.39
2022-07-26T05:52:09.381Z,92.78
2022-07-26T05:53:06.235Z,90.97
2022-07-26T05:54:04.774Z,91.05
2022-07-26T05:55:02.033Z,89.49
2022-07-26T05:56:01.437Z,85.65
2022-07-26T05:56:58.178Z,83.65
2022-07-26T05:57:54.920Z,83.85
2022-07-26T05:58:51.699Z,86.25
2022-07-26T05:59:48.550Z,86.24
2022-07-26T06:00:48.517Z,86.69
2022-07-26T06:01:45.518Z,87.80
2022-07-26T06:02:42.411Z,87.13
2022-07-26T06:03:39.190Z,87.49
2022-07-26T06:04:36.539Z,87.53
2022-07-26T06:05:33.340Z,87.09
2022-07-26T06:06:30.440Z,85.67
2022-07-26T06:07:27.211Z,86.36
2022-07-26T06:08:27.131Z,86.59
2022-07-26T06:09:24.883Z,86.55
2022-07-26T06:10:21.674Z,85.24
2022-07-26T06:11:18.847Z,83.45
2022-07-26T06:12:15.970Z,81.97
2022-07-26T06:13:12.934Z,81.64
2022-07-26T06:14:12.228Z,83.88
2022-07-26T06:15:15.556Z,84.58
2022-07-26T06:16:12.663Z,84.18
2022-07-26T06:17:09.744Z,84.48
2022-07-26T06:18:07.127Z,83.73
2022-07-26T06:19:03.959Z,82.90
2022-07-26T06:20:00.810Z,83.56
2022-07-26T06:21:02.192Z,83.50
2022-07-26T06:21:59.430Z,82.78
2022-07-26T06:22:58.274Z,82.91
2022-07-26T06:23:54.997Z,82.90
2022-07-26T06:24:52.166Z,81.66
2022-07-26T06:25:48.920Z,81.71
2022-07-26T06:26:46.734Z,80.73
2022-07-26T06:27:43.487Z,81.11
2022-07-26T06:28:40.291Z,81.50
2022-07-26T06:29:37.005Z,81.97
2022-07-26T06:30:35.016Z,81.41
2022-07-26T06:31:31.941Z,80.05
2022-07-26T06:32:28.719Z,79.12
2022-07-26T06:33:25.462Z,78.31
2022-07-26T06:34:22.249Z,78.91
2022-07-26T06:35:19.097Z,79.17
2022-07-26T06:36:16.020Z,79.35
2022-07-26T06:37:12.754Z,79.42
2022-07-26T06:38:09.568Z,79.22
2022-07-26T06:39:06.346Z,78.37
2022-07-26T06:40:03.666Z,78.02
2022-07-26T06:41:00.512Z,78.60
2022-07-26T06:41:57.223Z,78.37
2022-07-26T06:42:54.167Z,78.01
2022-07-26T06:43:50.890Z,78.72
2022-07-26T06:44:47.592Z,79.06
2022-07-26T06:45:44.370Z,77.27
2022-07-26T06:46:41.267Z,77.31
2022-07-26T06:47:38.091Z,76.11
2022-07-26T06:48:35.725Z,75.99
2022-07-26T06:49:32.842Z,75.34
2022-07-26T06:50:29.966Z,75.52
2022-07-26T06:51:26.683Z,74.66
2022-07-26T06:52:23.415Z,75.12
2022-07-26T06:53:20.167Z,73.73
2022-07-26T06:54:17.072Z,72.96
2022-07-26T06:55:14.618Z,74.70
2022-07-26T06:56:13.380Z,74.72
2022-07-26T06:57:10.139Z,74.63
2022-07-26T06:58:07.038Z,73.06
2022-07-26T06:59:09.026Z,73.62
2022-07-26T07:00:09.482Z,74.19
2022-07-26T07:01:06.418Z,75.38
2022-07-26T07:02:04.168Z,76.33
2022-07-26T07:03:01.166Z,76.31
2022-07-26T07:03:58.443Z,75.02
2022-07-26T07:04:55.289Z,75.44
2022-07-26T07:05:52.135Z,76.22
2022-07-26T07:06:49.611Z,74.21
2022-07-26T07:07:46.479Z,73.25
2022-07-26T07:08:43.183Z,72.36
2022-07-26T07:09:41.651Z,73.38
2022-07-26T07:10:39.104Z,73.28
2022-07-26T07:11:35.883Z,74.08
2022-07-26T07:12:32.700Z,73.42
2022-07-26T07:13:29.418Z,73.48
2022-07-26T07:14:26.138Z,73.37
2022-07-26T07:15:22.918Z,73.18
2022-07-26T07:16:19.779Z,73.31
2022-07-26T07:17:20.490Z,74.99
2022-07-26T07:18:17.515Z,74.77
2022-07-26T07:19:14.263Z,72.66
2022-07-26T07:20:11.620Z,71.19
2022-07-26T07:21:08.467Z,71.09
2022-07-26T07:22:05.929Z,71.53
2022-07-26T07:23:02.701Z,71.46
2022-07-26T07:24:00.227Z,71.17
2022-07-26T07:24:58.884Z,69.65
2022-07-26T07:25:55.617Z,67.70
2022-07-26T07:26:52.844Z,68.18
2022-07-26T07:27:49.639Z,67.86
2022-07-26T07:28:46.462Z,68.00
2022-07-26T07:29:45.353Z,67.04
2022-07-26T07:30:42.150Z,67.96
2022-07-26T07:31:48.321Z,68.83
2022-07-26T07:32:46.270Z,68.90
2022-07-26T07:33:52.874Z,68.13
2022-07-26T07:34:50.695Z,66.98
2022-07-26T07:35:47.479Z,67.77
2022-07-26T07:36:44.427Z,67.76
2022-07-26T07:37:53.726Z,66.33
2022-07-26T07:38:50.840Z,66.00
2022-07-26T07:39:50.221Z,65.83
2022-07-26T07:40:47.572Z,66.38
2022-07-26T07:41:48.817Z,67.00
2022-07-26T07:42:45.565Z,66.66
2022-07-26T07:43:42.359Z,65.35
2022-07-26T07:44:39.201Z,64.56
2022-07-26T07:45:36.033Z,64.52
2022-07-26T07:46:34.297Z,64.79
2022-07-26T07:47:33.819Z,65.26
2022-07-26T07:48:30.852Z,64.96
2022-07-26T07:49:27.654Z,64.89
2022-07-26T07:50:27.171Z,65.14
2022-07-26T07:51:26.552Z,66.28
2022-07-26T07:52:23.334Z,66.71
2022-07-26T07:53:20.078Z,65.53
2022-07-26T07:54:18.431Z,65.76
2022-07-26T07:55:36.931Z,65.81
2022-07-26T07:56:32.022Z,64.36
2022-07-26T07:57:28.779Z,63.81
2022-07-26T07:58:28.122Z,63.25
2022-07-26T07:59:25.601Z,61.80
2022-07-26T08:00:26.909Z,61.47
2022-07-26T08:01:24.368Z,61.11
2022-07-26T08:02:36.644Z,60.65
2022-07-26T08:03:38.731Z,61.86
2022-07-26T08:04:36.191Z,62.62
2022-07-26T08:05:33.103Z,63.31
2022-07-26T08:06:30.007Z,62.61
2022-07-26T08:07:33.050Z,61.95
2022-07-26T08:08:33.222Z,61.41
2022-07-26T08:09:29.971Z,62.11
2022-07-26T08:10:31.008Z,61.95
2022-07-26T08:11:29.902Z,61.27
2022-07-26T08:12:26.922Z,60.83
2022-07-26T08:13:23.966Z,60.75
2022-07-26T08:14:20.786Z,59.71
2022-07-26T08:15:17.674Z,59.71
2022-07-26T08:16:16.369Z,58.81
2022-07-26T08:17:13.171Z,58.47
2022-07-26T08:18:09.920Z,58.74
2022-07-26T08:19:11.557Z,57.88
2022-07-26T08:20:12.916Z,58.20
2022-07-26T08:21:12.647Z,59.13
2022-07-26T08:22:11.462Z,59.56
2022-07-26T08:23:08.508Z,58.56
2022-07-26T08:24:05.522Z,58.62
2022-07-26T08:25:02.258Z,58.05
2022-07-26T08:26:03.230Z,57.70
2022-07-26T08:27:01.726Z,56.99
2022-07-26T08:28:03.487Z,57.95
2022-07-26T08:29:00.759Z,58.17
2022-07-26T08:29:57.484Z,58.22
2022-07-26T08:30:54.448Z,57.75
2022-07-26T08:31:52.864Z,57.34
2022-07-26T08:32:49.800Z,56.26
2022-07-26T08:33:47.867Z,55.94
2022-07-26T08:34:44.560Z,55.43
2022-07-26T08:35:41.265Z,55.26
2022-07-26T08:36:49.576Z,55.11
2022-07-26T08:37:54.896Z,54.27
2022-07-26T08:38:52.499Z,53.69
2022-07-26T08:39:49.325Z,53.78
2022-07-26T08:40:46.098Z,53.86
2022-07-26T08:41:43.242Z,54.58
2022-07-26T08:42:40.329Z,55.08
2022-07-26T08:43:43.720Z,55.06
2022-07-26T08:44:49.478Z,54.08
2022-07-26T08:45:47.307Z,54.03
2022-07-26T08:46:44.160Z,53.52
2022-07-26T08:48:00.771Z,53.76
2022-07-26T08:48:58.099Z,53.41
2022-07-26T08:49:55.019Z,52.32
2022-07-26T08:50:55.831Z,52.47
2022-07-26T08:51:53.162Z,51.80
2022-07-26T08:52:51.785Z,51.11
2022-07-26T08:53:50.302Z,50.82
2022-07-26T08:54:50.206Z,50.84
2022-07-26T08:57:03.847Z,50.79
2022-07-26T08:58:03.031Z,50.22
2022-07-26T08:59:07.215Z,48.92
2022-07-26T09:00:16.756Z,49.09
2022-07-26T09:01:13.962Z,49.50
2022-07-26T09:02:13.231Z,49.80
2022-07-26T09:03:25.726Z,49.10
2022-07-26T09:04:41.393Z,48.96
2022-07-26T09:05:41.251Z,48.30
2022-07-26T09:06:37.980Z,48.50
2022-07-26T09:07:34.829Z,48.17
2022-07-26T09:08:31.580Z,46.34
2022-07-26T09:09:29.543Z,46.81
2022-07-26T09:10:27.944Z,47.88
2022-07-26T09:11:24.598Z,47.31
2022-07-26T09:12:22.593Z,47.53
2022-07-26T09:13:20.238Z,47.14
2022-07-26T09:14:17.005Z,46.34
2022-07-26T09:15:26.539Z,46.38
2022-07-26T09:16:24.319Z,46.22
2022-07-26T09:17:24.029Z,45.71
2022-07-26T09:18:29.494Z,45.57
2022-07-26T09:19:27.943Z,44.46
2022-07-26T09:20:28.186Z,44.53
2022-07-26T09:21:32.482Z,44.54
2022-07-26T09:22:29.675Z,44.84
2022-07-26T09:23:39.493Z,44.87
2022-07-26T09:24:41.264Z,44.95
2022-07-26T09:25:41.360Z,44.69
2022-07-26T09:26:38.984Z,44.40
2022-07-26T09:27:36.911Z,44.98
2022-07-26T09:28:33.736Z,44.15
2022-07-26T09:29:30.858Z,44.18
2022-07-26T09:30:31.094Z,44.21
2022-07-26T09:31:27.911Z,44.24
2022-07-26T09:32:26.483Z,44.80
2022-07-26T09:33:24.474Z,44.83
2022-07-26T09:34:26.815Z,44.86
2022-07-26T09:35:49.635Z,43.84
2022-07-26T09:36:58.154Z,44.53
2022-07-26T09:37:56.202Z,43.88
2022-07-26T09:39:00.310Z,44.12
2022-07-26T09:40:01.143Z,44.06
2022-07-26T09:40:57.959Z,43.92
2022-07-26T09:42:17.577Z,43.44
2022-07-26T09:43:16.405Z,43.59
2022-07-26T09:44:27.036Z,43.60
2022-07-26T09:45:25.606Z,42.46
2022-07-26T09:46:26.159Z,42.93
2022-07-26T09:47:34.773Z,42.89
2022-07-26T09:48:52.128Z,42.76
2022-07-26T09:49:48.836Z,42.97
2022-07-26T09:50:48.764Z,42.07
2022-07-26T09:51:50.780Z,41.56
2022-07-26T09:53:10.053Z,42.10
2022-07-26T09:54:07.939Z,42.31
2022-07-26T09:55:08.260Z,42.12
2022-07-26T09:56:05.238Z,41.55
2022-07-26T09:57:03.293Z,41.31
2022-07-26T09:58:03.632Z,41.31
2022-07-26T09:59:00.967Z,41.69
2022-07-26T09:59:57.923Z,41.41
2022-07-26T10:01:00.455Z,41.14
2022-07-26T10:02:00.645Z,41.91
2022-07-26T10:02:58.478Z,42.04
2022-07-26T10:03:55.260Z,43.03
2022-07-26T10:04:51.991Z,43.30
2022-07-26T10:05:48.840Z,42.98
2022-07-26T10:06:46.001Z,42.91
2022-07-26T10:07:43.203Z,42.93
2022-07-26T10:08:40.433Z,43.20
2022-07-26T10:10:00.271Z,42.73
2022-07-26T10:11:09.477Z,43.04
2022-07-26T10:12:09.176Z,42.76
2022-07-26T10:13:08.555Z,42.27
2022-07-26T10:14:34.382Z,42.82
2022-07-26T10:15:47.317Z,42.67
2022-07-26T10:16:44.184Z,42.02
2022-07-26T10:17:42.652Z,42.40
2022-07-26T10:18:39.432Z,42.10
2022-07-26T10:19:45.554Z,42.34
2022-07-26T10:20:45.955Z,41.86
2022-07-26T10:21:43.727Z,41.91
2022-07-26T10:22:40.534Z,41.62
2022-07-26T10:23:40.745Z,41.26
2022-07-26T10:24:41.309Z,41.82
2022-07-26T10:25:38.066Z,40.36
2022-07-26T10:26:36.996Z,40.38
2022-07-26T10:27:38.296Z,40.47
2022-07-26T10:28:37.569Z,39.62
2022-07-26T10:29:34.285Z,40.05
2022-07-26T10:30:35.345Z,39.58
2022-07-26T10:31:32.565Z,39.99
2022-07-26T10:32:33.245Z,39.48
2022-07-26T10:33:44.646Z,39.53
2022-07-26T10:34:41.912Z,39.00
2022-07-26T10:35:42.054Z,39.00
2022-07-26T10:36:40.096Z,38.64
2022-07-26T10:37:36.802Z,38.53
2022-07-26T10:38:40.527Z,38.54
2022-07-26T10:39:38.863Z,38.40
2022-07-26T10:40:37.719Z,39.38
2022-07-26T10:41:47.448Z,38.28
2022-07-26T10:42:45.732Z,39.21
2022-07-26T10:43:43.022Z,37.90
2022-07-26T10:44:45.296Z,37.86
2022-07-26T10:45:42.652Z,38.24
2022-07-26T10:47:02.662Z,37.71
2022-07-26T10:48:25.692Z,38.14
2022-07-26T10:49:30.574Z,38.08
2022-07-26T10:50:34.096Z,37.97
2022-07-26T10:51:34.245Z,38.05
2022-07-26T10:52:32.861Z,38.36
2022-07-26T10:53:31.121Z,38.60
2022-07-26T10:54:27.835Z,37.46
2022-07-26T10:55:24.911Z,37.54
2022-07-26T10:56:21.630Z,37.00
2022-07-26T10:57:18.384Z,37.18
2022-07-26T10:58:15.428Z,37.21
2022-07-26T10:59:12.266Z,38.16
2022-07-26T11:00:13.347Z,37.84
2022-07-26T11:01:10.202Z,38.25
2022-07-26T11:02:18.332Z,36.73
2022-07-26T11:03:16.325Z,37.21
2022-07-26T11:04:19.515Z,36.18
2022-07-26T11:05:19.412Z,36.54
2022-07-26T11:06:19.294Z,35.75
2022-07-26T11:07:16.270Z,36.56
2022-07-26T11:08:13.414Z,35.83
2022-07-26T11:09:12.556Z,36.08
2022-07-26T11:10:09.490Z,36.41
2022-07-26T11:11:06.338Z,35.73
2022-07-26T11:12:19.482Z,35.61
2022-07-26T11:13:23.613Z,35.64
2022-07-26T11:14:20.463Z,35.83
2022-07-26T11:15:18.818Z,35.69
2022-07-26T11:16:16.304Z,36.06
2022-07-26T11:17:28.223Z,35.59
2022-07-26T11:18:30.851Z,36.14
2022-07-26T11:19:29.242Z,36.13
2022-07-26T11:20:29.803Z,35.46
2022-07-26T11:21:26.827Z,36.24
2022-07-26T11:22:34.419Z,35.60
2022-07-26T11:23:34.395Z,36.25
2022-07-26T11:24:31.986Z,36.52
2022-07-26T11:25:29.139Z,35.85
2022-07-26T11:26:26.120Z,36.03
2022-07-26T11:27:22.922Z,36.20
2022-07-26T11:28:21.305Z,36.42
2022-07-26T11:29:38.716Z,35.48
2022-07-26T11:30:59.138Z,35.19
2022-07-26T11:31:59.891Z,35.84
2022-07-26T11:32:59.792Z,35.07
2022-07-26T11:33:56.653Z,36.05
2022-07-26T11:35:01.683Z,35.02
2022-07-26T11:35:58.396Z,34.99
2022-07-26T11:36:57.885Z,35.59
2022-07-26T11:38:09.523Z,35.43
2022-07-26T11:39:13.329Z,35.83
2022-07-26T11:40:10.756Z,35.97
2022-07-26T11:41:09.634Z,35.86
2022-07-26T11:42:10.398Z,35.60
2022-07-26T11:43:07.256Z,35.32
2022-07-26T11:44:05.249Z,35.76
2022-07-26T11:45:02.018Z,35.91
2022-07-26T11:45:58.848Z,35.30
2022-07-26T11:46:57.961Z,34.73
2022-07-26T11:47:58.664Z,35.28
2022-07-26T11:48:55.531Z,35.44
2022-07-26T11:50:12.431Z,34.49
2022-07-26T11:51:14.956Z,34.77
2022-07-26T11:52:12.306Z,35.31
2022-07-26T11:53:21.805Z,35.21
2022-07-26T11:54:19.693Z,34.87
2022-07-26T11:55:31.381Z,34.25
2022-07-26T11:56:30.687Z,34.04
2022-07-26T11:57:32.151Z,33.98
2022-07-26T11:58:29.508Z,33.86
2022-07-26T11:59:29.601Z,33.14
2022-07-26T12:00:27.126Z,32.97
2022-07-26T12:01:26.374Z,33.00
2022-07-26T12:02:23.463Z,33.04
2022-07-26T12:03:22.951Z,32.93
2022-07-26T12:04:28.652Z,32.39
2022-07-26T12:05:25.571Z,32.67
2022-07-26T12:06:27.213Z,32.82
2022-07-26T12:07:23.943Z,33.32
2022-07-26T12:08:20.702Z,33.65
2022-07-26T12:09:34.302Z,33.75
2022-07-26T12:10:31.536Z,32.55
2022-07-26T12:11:41.753Z,33.20
2022-07-26T12:12:38.545Z,32.85
2022-07-26T12:14:02.465Z,31.14
2022-07-26T12:15:03.664Z,31.06
2022-07-26T12:16:00.662Z,32.29
2022-07-26T12:16:59.023Z,32.22
2022-07-26T12:17:59.889Z,32.11
2022-07-26T12:18:56.595Z,32.50
2022-07-26T12:19:53.499Z,31.88
2022-07-26T12:21:08.337Z,32.45
2022-07-26T12:22:17.916Z,31.37
2022-07-26T12:23:14.740Z,30.80
2022-07-26T12:24:14.176Z,31.52
2022-07-26T12:25:11.039Z,30.38
2022-07-26T12:26:25.946Z,31.04
2022-07-26T12:27:24.618Z,31.18
2022-07-26T12:28:40.666Z,30.20
2022-07-26T12:29:39.422Z,31.13
2022-07-26T12:30:37.088Z,30.00